sensor_id;sensor_type;location;lat;lon;timestamp;temperature;humidity
15455;DHT22;21057;51.024;7.540;2023-11-18T00:00:59;5.40;99.90
15455;DHT22;21057;51.024;7.540;2023-11-18T00:03:25;5.50;99.90
15455;DHT22;21057;51.024;7.540;2023-11-18T00:05:52;5.40;99.90
15455;DHT22;21057;51.024;7.540;2023-11-18T00:08:19;5.50;99.90
15455;DHT22;21057;51.024;7.540;2023-11-18T00:10:47;5.40;99.90
15455;DHT22;21057;51.024;7.540;2023-11-18T00:13:14;5.30;99.90
15455;DHT22;21057;51.024;7.540;2023-11-18T00:15:41;5.30;99.90
15455;DHT22;21057;51.024;7.540;2023-11-18T00:18:08;5.30;99.90
15455;DHT22;21057;51.024;7.540;2023-11-18T00:20:35;5.30;99.90
15455;DHT22;21057;51.024;7.540;2023-11-18T00:23:01;5.20;99.90
15455;DHT22;21057;51.024;7.540;2023-11-18T00:25:30;5.30;99.90
15455;DHT22;21057;51.024;7.540;2023-11-18T00:27:59;5.30;99.90
15455;DHT22;21057;51.024;7.540;2023-11-18T00:30:27;5.10;99.90
15455;DHT22;21057;51.024;7.540;2023-11-18T00:32:54;5.20;99.90
15455;DHT22;21057;51.024;7.540;2023-11-18T00:35:21;5.10;99.90
15455;DHT22;21057;51.024;7.540;2023-11-18T00:37:48;4.70;99.90
15455;DHT22;21057;51.024;7.540;2023-11-18T00:40:15;4.80;99.90
15455;DHT22;21057;51.024;7.540;2023-11-18T00:42:43;4.70;99.90
15455;DHT22;21057;51.024;7.540;2023-11-18T00:45:12;4.80;99.90
15455;DHT22;21057;51.024;7.540;2023-11-18T00:47:39;4.70;99.90
15455;DHT22;21057;51.024;7.540;2023-11-18T00:50:07;4.90;99.90
15455;DHT22;21057;51.024;7.540;2023-11-18T00:52:34;4.90;99.90
15455;DHT22;21057;51.024;7.540;2023-11-18T00:55:04;4.80;99.90
15455;DHT22;21057;51.024;7.540;2023-11-18T00:57:32;4.90;99.90
15455;DHT22;21057;51.024;7.540;2023-11-18T00:59:59;4.90;99.90
15455;DHT22;21057;51.024;7.540;2023-11-18T01:02:27;4.90;99.90
15455;DHT22;21057;51.024;7.540;2023-11-18T01:04:54;4.90;99.90
15455;DHT22;21057;51.024;7.540;2023-11-18T01:07:21;4.80;99.90
15455;DHT22;21057;51.024;7.540;2023-11-18T01:09:48;4.60;99.90
15455;DHT22;21057;51.024;7.540;2023-11-18T01:12:15;4.60;99.90
15455;DHT22;21057;51.024;7.540;2023-11-18T01:14:42;4.40;99.90
15455;DHT22;21057;51.024;7.540;2023-11-18T01:17:09;4.30;99.90
15455;DHT22;21057;51.024;7.540;2023-11-18T01:19:37;4.30;99.90
15455;DHT22;21057;51.024;7.540;2023-11-18T01:22:04;4.50;99.90
15455;DHT22;21057;51.024;7.540;2023-11-18T01:24:31;4.40;99.90
15455;DHT22;21057;51.024;7.540;2023-11-18T01:26:58;4.40;99.90
15455;DHT22;21057;51.024;7.540;2023-11-18T01:29:25;4.30;99.90
15455;DHT22;21057;51.024;7.540;2023-11-18T01:31:52;4.20;99.90
15455;DHT22;21057;51.024;7.540;2023-11-18T01:34:21;4.30;99.90
15455;DHT22;21057;51.024;7.540;2023-11-18T01:36:49;4.40;99.90
15455;DHT22;21057;51.024;7.540;2023-11-18T01:39:16;4.20;99.90
15455;DHT22;21057;51.024;7.540;2023-11-18T01:41:44;4.10;99.90
15455;DHT22;21057;51.024;7.540;2023-11-18T01:44:11;4.00;99.90
15455;DHT22;21057;51.024;7.540;2023-11-18T01:46:39;4.10;99.90
15455;DHT22;21057;51.024;7.540;2023-11-18T01:49:10;4.10;99.90
15455;DHT22;21057;51.024;7.540;2023-11-18T01:51:40;4.20;99.90
15455;DHT22;21057;51.024;7.540;2023-11-18T01:54:09;4.30;99.90
15455;DHT22;21057;51.024;7.540;2023-11-18T01:56:40;4.10;99.90
15455;DHT22;21057;51.024;7.540;2023-11-18T01:59:08;4.20;99.90
15455;DHT22;21057;51.024;7.540;2023-11-18T02:01:36;4.10;99.90
15455;DHT22;21057;51.024;7.540;2023-11-18T02:04:05;4.20;99.90
15455;DHT22;21057;51.024;7.540;2023-11-18T02:06:33;4.20;99.90
15455;DHT22;21057;51.024;7.540;2023-11-18T02:09:01;4.10;99.90
15455;DHT22;21057;51.024;7.540;2023-11-18T02:11:36;4.10;99.90
15455;DHT22;21057;51.024;7.540;2023-11-18T02:14:08;4.20;99.90
15455;DHT22;21057;51.024;7.540;2023-11-18T02:16:38;4.30;99.90
15455;DHT22;21057;51.024;7.540;2023-11-18T02:19:15;4.20;99.90
15455;DHT22;21057;51.024;7.540;2023-11-18T02:21:46;4.20;99.90
15455;DHT22;21057;51.024;7.540;2023-11-18T02:24:24;4.20;99.90
15455;DHT22;21057;51.024;7.540;2023-11-18T02:26:53;4.30;99.90
15455;DHT22;21057;51.024;7.540;2023-11-18T02:29:20;4.40;99.90
15455;DHT22;21057;51.024;7.540;2023-11-18T02:31:50;4.30;99.90
15455;DHT22;21057;51.024;7.540;2023-11-18T02:34:23;4.30;99.90
15455;DHT22;21057;51.024;7.540;2023-11-18T02:36:57;4.40;99.90
15455;DHT22;21057;51.024;7.540;2023-11-18T02:39:32;4.40;99.90
15455;DHT22;21057;51.024;7.540;2023-11-18T02:42:07;4.50;99.90
15455;DHT22;21057;51.024;7.540;2023-11-18T02:44:35;4.40;99.90
15455;DHT22;21057;51.024;7.540;2023-11-18T02:47:03;4.30;99.90
15455;DHT22;21057;51.024;7.540;2023-11-18T02:49:31;4.30;99.90
15455;DHT22;21057;51.024;7.540;2023-11-18T02:51:58;4.30;99.90
15455;DHT22;21057;51.024;7.540;2023-11-18T02:54:25;4.40;99.90
15455;DHT22;21057;51.024;7.540;2023-11-18T02:56:52;4.30;99.90
15455;DHT22;21057;51.024;7.540;2023-11-18T02:59:21;4.30;99.90
15455;DHT22;21057;51.024;7.540;2023-11-18T03:01:48;4.30;99.90
15455;DHT22;21057;51.024;7.540;2023-11-18T03:04:15;4.40;99.90
15455;DHT22;21057;51.024;7.540;2023-11-18T03:06:44;4.30;99.90
15455;DHT22;21057;51.024;7.540;2023-11-18T03:09:11;4.30;99.90
15455;DHT22;21057;51.024;7.540;2023-11-18T03:11:39;4.40;99.90
15455;DHT22;21057;51.024;7.540;2023-11-18T03:14:06;4.40;99.90
15455;DHT22;21057;51.024;7.540;2023-11-18T03:16:36;4.40;99.90
15455;DHT22;21057;51.024;7.540;2023-11-18T03:19:03;4.40;99.90
15455;DHT22;21057;51.024;7.540;2023-11-18T03:21:30;4.40;99.90
15455;DHT22;21057;51.024;7.540;2023-11-18T03:23:57;4.40;99.90
15455;DHT22;21057;51.024;7.540;2023-11-18T03:26:24;4.40;99.90
15455;DHT22;21057;51.024;7.540;2023-11-18T03:28:51;4.40;99.90
15455;DHT22;21057;51.024;7.540;2023-11-18T03:31:18;4.50;99.90
15455;DHT22;21057;51.024;7.540;2023-11-18T03:33:46;4.50;99.90
15455;DHT22;21057;51.024;7.540;2023-11-18T03:36:13;4.50;99.90
15455;DHT22;21057;51.024;7.540;2023-11-18T03:38:43;4.60;99.90
15455;DHT22;21057;51.024;7.540;2023-11-18T03:41:10;4.60;99.90
15455;DHT22;21057;51.024;7.540;2023-11-18T03:43:38;4.50;99.90
15455;DHT22;21057;51.024;7.540;2023-11-18T03:46:05;4.50;99.90
15455;DHT22;21057;51.024;7.540;2023-11-18T03:48:33;4.40;99.90
15455;DHT22;21057;51.024;7.540;2023-11-18T03:51:03;4.40;99.90
15455;DHT22;21057;51.024;7.540;2023-11-18T03:53:30;4.40;99.90
15455;DHT22;21057;51.024;7.540;2023-11-18T03:55:59;4.40;99.90
15455;DHT22;21057;51.024;7.540;2023-11-18T03:58:26;4.40;99.90
15455;DHT22;21057;51.024;7.540;2023-11-18T04:00:52;4.50;99.90
15455;DHT22;21057;51.024;7.540;2023-11-18T04:03:19;4.60;99.90
15455;DHT22;21057;51.024;7.540;2023-11-18T04:05:46;4.50;99.90
15455;DHT22;21057;51.024;7.540;2023-11-18T04:08:14;4.50;99.90
15455;DHT22;21057;51.024;7.540;2023-11-18T04:10:41;4.40;99.90
15455;DHT22;21057;51.024;7.540;2023-11-18T04:13:08;4.30;99.90
15455;DHT22;21057;51.024;7.540;2023-11-18T04:15:35;4.50;99.90
15455;DHT22;21057;51.024;7.540;2023-11-18T04:18:02;4.50;99.90
15455;DHT22;21057;51.024;7.540;2023-11-18T04:20:29;4.50;99.90
15455;DHT22;21057;51.024;7.540;2023-11-18T04:22:55;4.40;99.90
15455;DHT22;21057;51.024;7.540;2023-11-18T04:25:24;4.50;99.90
15455;DHT22;21057;51.024;7.540;2023-11-18T04:27:51;4.50;99.90
15455;DHT22;21057;51.024;7.540;2023-11-18T04:30:17;4.60;99.90
15455;DHT22;21057;51.024;7.540;2023-11-18T04:32:44;4.60;99.90
15455;DHT22;21057;51.024;7.540;2023-11-18T04:35:11;4.50;99.90
15455;DHT22;21057;51.024;7.540;2023-11-18T04:37:38;4.50;99.90
15455;DHT22;21057;51.024;7.540;2023-11-18T04:40:09;4.60;99.90
15455;DHT22;21057;51.024;7.540;2023-11-18T04:42:38;4.70;99.90
15455;DHT22;21057;51.024;7.540;2023-11-18T04:45:06;4.60;99.90
15455;DHT22;21057;51.024;7.540;2023-11-18T04:47:35;4.60;99.90
15455;DHT22;21057;51.024;7.540;2023-11-18T04:50:02;4.70;99.90
15455;DHT22;21057;51.024;7.540;2023-11-18T04:52:30;4.70;99.90
15455;DHT22;21057;51.024;7.540;2023-11-18T04:54:58;4.70;99.90
15455;DHT22;21057;51.024;7.540;2023-11-18T04:57:25;4.70;99.90
15455;DHT22;21057;51.024;7.540;2023-11-18T04:59:54;4.80;99.90
15455;DHT22;21057;51.024;7.540;2023-11-18T05:02:21;4.80;99.90
15455;DHT22;21057;51.024;7.540;2023-11-18T05:04:48;4.80;99.90
15455;DHT22;21057;51.024;7.540;2023-11-18T05:07:15;4.60;99.90
15455;DHT22;21057;51.024;7.540;2023-11-18T05:09:42;4.80;99.90
15455;DHT22;21057;51.024;7.540;2023-11-18T05:12:09;4.70;99.90
15455;DHT22;21057;51.024;7.540;2023-11-18T05:14:36;4.80;99.90
15455;DHT22;21057;51.024;7.540;2023-11-18T05:17:05;4.70;99.90
15455;DHT22;21057;51.024;7.540;2023-11-18T05:19:31;4.80;99.90
15455;DHT22;21057;51.024;7.540;2023-11-18T05:21:58;4.80;99.90
15455;DHT22;21057;51.024;7.540;2023-11-18T05:24:25;4.90;99.90
15455;DHT22;21057;51.024;7.540;2023-11-18T05:26:52;4.80;99.90
15455;DHT22;21057;51.024;7.540;2023-11-18T05:29:19;4.80;99.90
15455;DHT22;21057;51.024;7.540;2023-11-18T05:31:46;4.90;99.90
15455;DHT22;21057;51.024;7.540;2023-11-18T05:34:14;4.90;99.90
15455;DHT22;21057;51.024;7.540;2023-11-18T05:36:41;4.90;99.90
15455;DHT22;21057;51.024;7.540;2023-11-18T05:39:08;5.00;99.90
15455;DHT22;21057;51.024;7.540;2023-11-18T05:41:36;5.00;99.90
15455;DHT22;21057;51.024;7.540;2023-11-18T05:44:06;5.00;99.90
15455;DHT22;21057;51.024;7.540;2023-11-18T05:46:34;5.00;99.90
15455;DHT22;21057;51.024;7.540;2023-11-18T05:49:02;4.90;99.90
15455;DHT22;21057;51.024;7.540;2023-11-18T05:51:34;5.00;99.90
15455;DHT22;21057;51.024;7.540;2023-11-18T05:54:01;5.00;99.90
15455;DHT22;21057;51.024;7.540;2023-11-18T05:56:27;4.90;99.90
15455;DHT22;21057;51.024;7.540;2023-11-18T05:58:54;5.00;99.90
15455;DHT22;21057;51.024;7.540;2023-11-18T06:01:22;4.90;99.90
15455;DHT22;21057;51.024;7.540;2023-11-18T06:03:49;4.90;99.90
15455;DHT22;21057;51.024;7.540;2023-11-18T06:06:16;5.00;99.90
15455;DHT22;21057;51.024;7.540;2023-11-18T06:08:44;5.10;99.90
15455;DHT22;21057;51.024;7.540;2023-11-18T06:11:13;5.00;99.90
15455;DHT22;21057;51.024;7.540;2023-11-18T06:13:41;5.10;99.90
15455;DHT22;21057;51.024;7.540;2023-11-18T06:16:15;5.10;99.90
15455;DHT22;21057;51.024;7.540;2023-11-18T06:18:43;5.00;99.90
15455;DHT22;21057;51.024;7.540;2023-11-18T06:21:13;5.00;99.90
15455;DHT22;21057;51.024;7.540;2023-11-18T06:23:41;5.00;99.90
15455;DHT22;21057;51.024;7.540;2023-11-18T06:26:09;5.00;99.90
15455;DHT22;21057;51.024;7.540;2023-11-18T06:28:38;5.10;99.90
15455;DHT22;21057;51.024;7.540;2023-11-18T06:31:05;5.10;99.90
15455;DHT22;21057;51.024;7.540;2023-11-18T06:33:38;5.20;99.90
15455;DHT22;21057;51.024;7.540;2023-11-18T06:36:09;5.30;99.90
15455;DHT22;21057;51.024;7.540;2023-11-18T06:38:36;5.20;99.90
15455;DHT22;21057;51.024;7.540;2023-11-18T06:41:04;5.20;99.90
15455;DHT22;21057;51.024;7.540;2023-11-18T06:43:36;5.20;99.90
15455;DHT22;21057;51.024;7.540;2023-11-18T06:46:17;5.30;99.90
15455;DHT22;21057;51.024;7.540;2023-11-18T06:48:46;5.30;99.90
15455;DHT22;21057;51.024;7.540;2023-11-18T06:51:13;5.40;99.90
15455;DHT22;21057;51.024;7.540;2023-11-18T06:53:41;5.30;99.90
15455;DHT22;21057;51.024;7.540;2023-11-18T06:56:08;5.40;99.90
15455;DHT22;21057;51.024;7.540;2023-11-18T06:58:38;5.40;99.90
15455;DHT22;21057;51.024;7.540;2023-11-18T07:01:05;5.30;99.90
15455;DHT22;21057;51.024;7.540;2023-11-18T07:03:32;5.40;99.90
15455;DHT22;21057;51.024;7.540;2023-11-18T07:05:59;5.50;99.90
15455;DHT22;21057;51.024;7.540;2023-11-18T07:08:26;5.50;99.90
15455;DHT22;21057;51.024;7.540;2023-11-18T07:10:52;5.50;99.90
15455;DHT22;21057;51.024;7.540;2023-11-18T07:13:19;5.50;99.90
15455;DHT22;21057;51.024;7.540;2023-11-18T07:15:50;5.50;99.90
15455;DHT22;21057;51.024;7.540;2023-11-18T07:18:17;5.50;99.90
15455;DHT22;21057;51.024;7.540;2023-11-18T07:20:47;5.60;99.90
15455;DHT22;21057;51.024;7.540;2023-11-18T07:23:14;5.60;99.90
15455;DHT22;21057;51.024;7.540;2023-11-18T07:25:44;5.70;99.90
15455;DHT22;21057;51.024;7.540;2023-11-18T07:28:11;5.80;99.90
15455;DHT22;21057;51.024;7.540;2023-11-18T07:30:40;5.80;99.90
15455;DHT22;21057;51.024;7.540;2023-11-18T07:33:09;5.90;99.90
15455;DHT22;21057;51.024;7.540;2023-11-18T07:35:36;5.90;99.90
15455;DHT22;21057;51.024;7.540;2023-11-18T07:38:03;5.90;99.90
15455;DHT22;21057;51.024;7.540;2023-11-18T07:40:32;5.90;99.90
15455;DHT22;21057;51.024;7.540;2023-11-18T07:42:59;6.00;99.90
15455;DHT22;21057;51.024;7.540;2023-11-18T07:45:27;6.10;99.90
15455;DHT22;21057;51.024;7.540;2023-11-18T07:47:54;6.10;99.90
15455;DHT22;21057;51.024;7.540;2023-11-18T07:50:22;6.10;99.90
15455;DHT22;21057;51.024;7.540;2023-11-18T07:52:49;6.00;99.90
15455;DHT22;21057;51.024;7.540;2023-11-18T07:55:16;6.10;99.90
15455;DHT22;21057;51.024;7.540;2023-11-18T07:57:44;6.10;99.90
15455;DHT22;21057;51.024;7.540;2023-11-18T08:00:12;6.20;99.90
15455;DHT22;21057;51.024;7.540;2023-11-18T08:02:40;6.20;99.90
15455;DHT22;21057;51.024;7.540;2023-11-18T08:05:07;6.20;99.90
15455;DHT22;21057;51.024;7.540;2023-11-18T08:07:36;6.30;99.90
15455;DHT22;21057;51.024;7.540;2023-11-18T08:10:04;6.40;99.90
15455;DHT22;21057;51.024;7.540;2023-11-18T08:12:31;6.40;99.90
15455;DHT22;21057;51.024;7.540;2023-11-18T08:14:59;6.40;99.90
15455;DHT22;21057;51.024;7.540;2023-11-18T08:17:26;6.40;99.90
15455;DHT22;21057;51.024;7.540;2023-11-18T08:19:53;6.50;99.90
15455;DHT22;21057;51.024;7.540;2023-11-18T08:22:21;6.60;99.90
15455;DHT22;21057;51.024;7.540;2023-11-18T08:24:50;6.60;99.90
15455;DHT22;21057;51.024;7.540;2023-11-18T08:27:17;6.60;99.90
15455;DHT22;21057;51.024;7.540;2023-11-18T08:29:44;6.70;99.90
15455;DHT22;21057;51.024;7.540;2023-11-18T08:32:14;6.70;99.90
15455;DHT22;21057;51.024;7.540;2023-11-18T08:34:41;6.70;99.90
15455;DHT22;21057;51.024;7.540;2023-11-18T08:37:08;6.60;99.90
15455;DHT22;21057;51.024;7.540;2023-11-18T08:39:34;6.60;99.90
15455;DHT22;21057;51.024;7.540;2023-11-18T08:42:03;6.70;99.90
15455;DHT22;21057;51.024;7.540;2023-11-18T08:44:33;6.90;99.90
15455;DHT22;21057;51.024;7.540;2023-11-18T08:47:00;7.00;99.90
15455;DHT22;21057;51.024;7.540;2023-11-18T08:49:31;6.90;99.90
15455;DHT22;21057;51.024;7.540;2023-11-18T08:51:59;6.80;99.90
15455;DHT22;21057;51.024;7.540;2023-11-18T08:54:27;6.90;99.90
15455;DHT22;21057;51.024;7.540;2023-11-18T08:57:04;7.10;99.90
15455;DHT22;21057;51.024;7.540;2023-11-18T08:59:45;7.00;99.90
15455;DHT22;21057;51.024;7.540;2023-11-18T09:02:11;7.20;99.90
15455;DHT22;21057;51.024;7.540;2023-11-18T09:04:40;7.10;99.90
15455;DHT22;21057;51.024;7.540;2023-11-18T09:07:08;7.00;99.90
15455;DHT22;21057;51.024;7.540;2023-11-18T09:09:35;7.20;99.90
15455;DHT22;21057;51.024;7.540;2023-11-18T09:12:04;7.20;99.90
15455;DHT22;21057;51.024;7.540;2023-11-18T09:14:34;7.20;99.90
15455;DHT22;21057;51.024;7.540;2023-11-18T09:17:01;7.30;99.90
15455;DHT22;21057;51.024;7.540;2023-11-18T09:19:28;7.30;99.90
15455;DHT22;21057;51.024;7.540;2023-11-18T09:21:57;7.30;99.90
15455;DHT22;21057;51.024;7.540;2023-11-18T09:24:24;7.20;99.90
15455;DHT22;21057;51.024;7.540;2023-11-18T09:26:51;7.40;99.90
15455;DHT22;21057;51.024;7.540;2023-11-18T09:29:21;7.40;99.90
15455;DHT22;21057;51.024;7.540;2023-11-18T09:31:50;7.40;99.90
15455;DHT22;21057;51.024;7.540;2023-11-18T09:34:18;7.50;99.90
15455;DHT22;21057;51.024;7.540;2023-11-18T09:36:53;7.50;99.90
15455;DHT22;21057;51.024;7.540;2023-11-18T09:39:20;7.50;99.90
15455;DHT22;21057;51.024;7.540;2023-11-18T09:42:04;7.40;99.90
15455;DHT22;21057;51.024;7.540;2023-11-18T09:44:36;7.30;99.90
15455;DHT22;21057;51.024;7.540;2023-11-18T09:47:07;7.40;99.90
15455;DHT22;21057;51.024;7.540;2023-11-18T09:49:40;7.40;99.90
15455;DHT22;21057;51.024;7.540;2023-11-18T09:52:07;7.50;99.90
15455;DHT22;21057;51.024;7.540;2023-11-18T09:54:39;7.60;99.90
15455;DHT22;21057;51.024;7.540;2023-11-18T09:57:10;7.60;99.90
15455;DHT22;21057;51.024;7.540;2023-11-18T09:59:49;7.70;99.90
15455;DHT22;21057;51.024;7.540;2023-11-18T10:02:20;7.80;99.90
15455;DHT22;21057;51.024;7.540;2023-11-18T10:04:49;7.70;99.90
15455;DHT22;21057;51.024;7.540;2023-11-18T10:07:24;7.70;99.90
15455;DHT22;21057;51.024;7.540;2023-11-18T10:09:54;7.80;99.90
15455;DHT22;21057;51.024;7.540;2023-11-18T10:12:23;7.80;99.90
15455;DHT22;21057;51.024;7.540;2023-11-18T10:14:53;7.70;99.90
15455;DHT22;21057;51.024;7.540;2023-11-18T10:17:22;7.80;99.90
15455;DHT22;21057;51.024;7.540;2023-11-18T10:19:56;7.80;99.90
15455;DHT22;21057;51.024;7.540;2023-11-18T10:22:26;7.80;99.90
15455;DHT22;21057;51.024;7.540;2023-11-18T10:24:53;7.80;99.90
15455;DHT22;21057;51.024;7.540;2023-11-18T10:27:22;8.00;99.90
15455;DHT22;21057;51.024;7.540;2023-11-18T10:29:56;7.80;99.90
15455;DHT22;21057;51.024;7.540;2023-11-18T10:32:23;7.80;99.90
15455;DHT22;21057;51.024;7.540;2023-11-18T10:34:54;7.90;99.90
15455;DHT22;21057;51.024;7.540;2023-11-18T10:37:21;7.90;99.90
15455;DHT22;21057;51.024;7.540;2023-11-18T10:39:49;8.00;99.90
15455;DHT22;21057;51.024;7.540;2023-11-18T10:42:17;8.00;99.90
15455;DHT22;21057;51.024;7.540;2023-11-18T10:44:56;7.90;99.90
15455;DHT22;21057;51.024;7.540;2023-11-18T10:47:25;7.90;99.90
15455;DHT22;21057;51.024;7.540;2023-11-18T10:49:53;8.00;99.90
15455;DHT22;21057;51.024;7.540;2023-11-18T10:52:22;8.00;99.90
15455;DHT22;21057;51.024;7.540;2023-11-18T10:54:52;8.10;99.90
15455;DHT22;21057;51.024;7.540;2023-11-18T10:57:20;8.10;99.90
15455;DHT22;21057;51.024;7.540;2023-11-18T10:59:59;8.10;99.90
15455;DHT22;21057;51.024;7.540;2023-11-18T11:02:30;8.10;99.90
15455;DHT22;21057;51.024;7.540;2023-11-18T11:05:01;8.10;99.90
15455;DHT22;21057;51.024;7.540;2023-11-18T11:07:28;8.10;99.90
15455;DHT22;21057;51.024;7.540;2023-11-18T11:09:56;8.00;99.90
15455;DHT22;21057;51.024;7.540;2023-11-18T11:12:23;8.00;99.90
15455;DHT22;21057;51.024;7.540;2023-11-18T11:14:59;8.20;99.90
15455;DHT22;21057;51.024;7.540;2023-11-18T11:17:29;8.30;99.90
15455;DHT22;21057;51.024;7.540;2023-11-18T11:20:03;8.30;99.90
15455;DHT22;21057;51.024;7.540;2023-11-18T11:22:38;8.20;99.90
15455;DHT22;21057;51.024;7.540;2023-11-18T11:25:14;8.20;99.90
15455;DHT22;21057;51.024;7.540;2023-11-18T11:28:05;8.10;99.90
15455;DHT22;21057;51.024;7.540;2023-11-18T11:30:44;8.10;99.90
15455;DHT22;21057;51.024;7.540;2023-11-18T11:33:17;8.20;99.90
15455;DHT22;21057;51.024;7.540;2023-11-18T11:35:49;8.10;99.90
15455;DHT22;21057;51.024;7.540;2023-11-18T11:38:22;8.30;99.90
15455;DHT22;21057;51.024;7.540;2023-11-18T11:40:50;8.20;99.90
15455;DHT22;21057;51.024;7.540;2023-11-18T11:43:19;8.30;99.90
15455;DHT22;21057;51.024;7.540;2023-11-18T11:45:49;8.20;99.90
15455;DHT22;21057;51.024;7.540;2023-11-18T11:48:20;8.30;99.90
15455;DHT22;21057;51.024;7.540;2023-11-18T11:51:03;8.30;99.90
15455;DHT22;21057;51.024;7.540;2023-11-18T11:53:35;8.20;99.90
15455;DHT22;21057;51.024;7.540;2023-11-18T11:56:05;8.20;99.90
15455;DHT22;21057;51.024;7.540;2023-11-18T11:58:34;8.30;99.90
15455;DHT22;21057;51.024;7.540;2023-11-18T12:01:15;8.40;99.90
15455;DHT22;21057;51.024;7.540;2023-11-18T12:03:46;8.40;99.90
15455;DHT22;21057;51.024;7.540;2023-11-18T12:06:18;8.40;99.90
15455;DHT22;21057;51.024;7.540;2023-11-18T12:08:50;8.40;99.90
15455;DHT22;21057;51.024;7.540;2023-11-18T12:11:18;8.50;99.90
15455;DHT22;21057;51.024;7.540;2023-11-18T12:14:00;8.40;99.90
15455;DHT22;21057;51.024;7.540;2023-11-18T12:17:01;8.20;99.90
15455;DHT22;21057;51.024;7.540;2023-11-18T12:19:34;8.30;99.90
15455;DHT22;21057;51.024;7.540;2023-11-18T12:22:11;8.30;99.90
15455;DHT22;21057;51.024;7.540;2023-11-18T12:24:46;8.40;99.90
15455;DHT22;21057;51.024;7.540;2023-11-18T12:27:43;8.40;99.90
15455;DHT22;21057;51.024;7.540;2023-11-18T12:30:37;8.50;99.90
15455;DHT22;21057;51.024;7.540;2023-11-18T12:33:08;8.40;99.90
15455;DHT22;21057;51.024;7.540;2023-11-18T12:35:42;8.50;99.90
15455;DHT22;21057;51.024;7.540;2023-11-18T12:38:43;8.60;99.90
15455;DHT22;21057;51.024;7.540;2023-11-18T12:41:32;8.70;99.90
15455;DHT22;21057;51.024;7.540;2023-11-18T12:44:14;8.70;99.90
15455;DHT22;21057;51.024;7.540;2023-11-18T12:46:53;8.70;99.90
15455;DHT22;21057;51.024;7.540;2023-11-18T12:49:23;8.70;99.90
15455;DHT22;21057;51.024;7.540;2023-11-18T12:51:50;8.70;99.90
15455;DHT22;21057;51.024;7.540;2023-11-18T12:54:19;8.80;99.90
15455;DHT22;21057;51.024;7.540;2023-11-18T12:56:47;8.70;99.90
15455;DHT22;21057;51.024;7.540;2023-11-18T12:59:16;8.70;99.90
15455;DHT22;21057;51.024;7.540;2023-11-18T13:01:45;8.60;99.90
15455;DHT22;21057;51.024;7.540;2023-11-18T13:04:17;8.50;99.90
15455;DHT22;21057;51.024;7.540;2023-11-18T13:06:47;8.60;99.90
15455;DHT22;21057;51.024;7.540;2023-11-18T13:09:17;8.40;99.90
15455;DHT22;21057;51.024;7.540;2023-11-18T13:11:53;8.40;99.90
15455;DHT22;21057;51.024;7.540;2023-11-18T13:14:23;8.40;99.90
15455;DHT22;21057;51.024;7.540;2023-11-18T13:16:53;8.50;99.90
15455;DHT22;21057;51.024;7.540;2023-11-18T13:19:24;8.50;99.90
15455;DHT22;21057;51.024;7.540;2023-11-18T13:21:56;8.40;99.90
15455;DHT22;21057;51.024;7.540;2023-11-18T13:24:24;8.40;99.90
15455;DHT22;21057;51.024;7.540;2023-11-18T13:26:53;8.40;99.90
15455;DHT22;21057;51.024;7.540;2023-11-18T13:29:21;8.50;99.90
15455;DHT22;21057;51.024;7.540;2023-11-18T13:31:49;8.60;99.90
15455;DHT22;21057;51.024;7.540;2023-11-18T13:34:16;8.60;99.90
15455;DHT22;21057;51.024;7.540;2023-11-18T13:36:43;8.60;99.90
15455;DHT22;21057;51.024;7.540;2023-11-18T13:39:17;8.50;99.90
15455;DHT22;21057;51.024;7.540;2023-11-18T13:41:44;8.50;99.90
15455;DHT22;21057;51.024;7.540;2023-11-18T13:44:11;8.50;99.90
15455;DHT22;21057;51.024;7.540;2023-11-18T13:46:39;8.50;99.90
15455;DHT22;21057;51.024;7.540;2023-11-18T13:49:06;8.40;99.90
15455;DHT22;21057;51.024;7.540;2023-11-18T13:51:34;8.50;99.90
15455;DHT22;21057;51.024;7.540;2023-11-18T13:54:03;8.50;99.90
15455;DHT22;21057;51.024;7.540;2023-11-18T13:56:31;8.60;99.90
15455;DHT22;21057;51.024;7.540;2023-11-18T13:58:58;8.60;99.90
15455;DHT22;21057;51.024;7.540;2023-11-18T14:01:26;8.50;99.90
15455;DHT22;21057;51.024;7.540;2023-11-18T14:03:53;8.40;99.90
15455;DHT22;21057;51.024;7.540;2023-11-18T14:06:22;8.50;99.90
15455;DHT22;21057;51.024;7.540;2023-11-18T14:08:49;8.50;99.90
15455;DHT22;21057;51.024;7.540;2023-11-18T14:11:16;8.40;99.90
15455;DHT22;21057;51.024;7.540;2023-11-18T14:13:44;8.50;99.90
15455;DHT22;21057;51.024;7.540;2023-11-18T14:16:12;8.50;99.90
15455;DHT22;21057;51.024;7.540;2023-11-18T14:18:42;8.50;99.90
15455;DHT22;21057;51.024;7.540;2023-11-18T14:21:09;8.60;99.90
15455;DHT22;21057;51.024;7.540;2023-11-18T14:23:36;8.70;99.90
15455;DHT22;21057;51.024;7.540;2023-11-18T14:26:05;8.70;99.90
15455;DHT22;21057;51.024;7.540;2023-11-18T14:28:33;8.40;99.90
15455;DHT22;21057;51.024;7.540;2023-11-18T14:31:01;8.50;99.90
15455;DHT22;21057;51.024;7.540;2023-11-18T14:33:30;8.40;99.90
15455;DHT22;21057;51.024;7.540;2023-11-18T14:35:58;8.50;99.90
15455;DHT22;21057;51.024;7.540;2023-11-18T14:38:26;8.50;99.90
15455;DHT22;21057;51.024;7.540;2023-11-18T14:40:53;8.60;99.90
15455;DHT22;21057;51.024;7.540;2023-11-18T14:43:20;8.60;99.90
15455;DHT22;21057;51.024;7.540;2023-11-18T14:45:46;8.50;99.90
15455;DHT22;21057;51.024;7.540;2023-11-18T14:48:15;8.40;99.90
15455;DHT22;21057;51.024;7.540;2023-11-18T14:50:42;8.40;99.90
15455;DHT22;21057;51.024;7.540;2023-11-18T14:53:10;8.40;99.90
15455;DHT22;21057;51.024;7.540;2023-11-18T14:55:37;8.50;99.90
15455;DHT22;21057;51.024;7.540;2023-11-18T14:58:04;8.60;99.90
15455;DHT22;21057;51.024;7.540;2023-11-18T15:00:32;8.60;99.90
15455;DHT22;21057;51.024;7.540;2023-11-18T15:02:59;8.40;99.90
15455;DHT22;21057;51.024;7.540;2023-11-18T15:05:28;8.40;99.90
15455;DHT22;21057;51.024;7.540;2023-11-18T15:07:57;8.50;99.90
15455;DHT22;21057;51.024;7.540;2023-11-18T15:10:25;8.40;99.90
15455;DHT22;21057;51.024;7.540;2023-11-18T15:12:53;8.40;99.90
15455;DHT22;21057;51.024;7.540;2023-11-18T15:15:21;8.30;99.90
15455;DHT22;21057;51.024;7.540;2023-11-18T15:17:48;8.30;99.90
15455;DHT22;21057;51.024;7.540;2023-11-18T15:20:16;8.30;99.90
15455;DHT22;21057;51.024;7.540;2023-11-18T15:22:46;8.40;99.90
15455;DHT22;21057;51.024;7.540;2023-11-18T15:25:13;8.20;99.90
15455;DHT22;21057;51.024;7.540;2023-11-18T15:27:44;8.30;99.90
15455;DHT22;21057;51.024;7.540;2023-11-18T15:30:12;8.10;99.90
15455;DHT22;21057;51.024;7.540;2023-11-18T15:32:39;8.20;99.90
15455;DHT22;21057;51.024;7.540;2023-11-18T15:35:07;8.30;99.90
15455;DHT22;21057;51.024;7.540;2023-11-18T15:37:35;8.40;99.90
15455;DHT22;21057;51.024;7.540;2023-11-18T15:40:06;8.40;99.90
15455;DHT22;21057;51.024;7.540;2023-11-18T15:42:37;8.30;99.90
15455;DHT22;21057;51.024;7.540;2023-11-18T15:45:07;8.30;99.90
15455;DHT22;21057;51.024;7.540;2023-11-18T15:47:35;8.30;99.90
15455;DHT22;21057;51.024;7.540;2023-11-18T15:50:04;8.40;99.90
15455;DHT22;21057;51.024;7.540;2023-11-18T15:52:31;8.30;99.90
15455;DHT22;21057;51.024;7.540;2023-11-18T15:55:00;8.20;99.90
15455;DHT22;21057;51.024;7.540;2023-11-18T15:57:28;8.10;99.90